sensor_id;sensor_type;location;lat;lon;timestamp;P1;durP1;ratioP1;P2;durP2;ratioP2
9906;SDS011;4992;51.628;6.664;2023-11-21T00:02:04;24.17;;;13.27;;
9906;SDS011;4992;51.628;6.664;2023-11-21T00:04:29;25.70;;;14.17;;
9906;SDS011;4992;51.628;6.664;2023-11-21T00:06:55;21.93;;;14.20;;
9906;SDS011;4992;51.628;6.664;2023-11-21T00:09:20;22.97;;;14.70;;
9906;SDS011;4992;51.628;6.664;2023-11-21T00:11:46;19.70;;;14.47;;
9906;SDS011;4992;51.628;6.664;2023-11-21T00:14:12;23.10;;;14.83;;
9906;SDS011;4992;51.628;6.664;2023-11-21T00:16:39;17.13;;;13.40;;
9906;SDS011;4992;51.628;6.664;2023-11-21T00:19:05;22.30;;;14.80;;
9906;SDS011;4992;51.628;6.664;2023-11-21T00:21:31;26.60;;;14.17;;
9906;SDS011;4992;51.628;6.664;2023-11-21T00:23:56;29.10;;;14.87;;
9906;SDS011;4992;51.628;6.664;2023-11-21T00:26:22;23.57;;;14.63;;
9906;SDS011;4992;51.628;6.664;2023-11-21T00:28:49;22.47;;;15.63;;
9906;SDS011;4992;51.628;6.664;2023-11-21T00:31:15;20.73;;;14.90;;
9906;SDS011;4992;51.628;6.664;2023-11-21T00:33:40;26.37;;;14.07;;
9906;SDS011;4992;51.628;6.664;2023-11-21T00:36:06;19.67;;;13.27;;
9906;SDS011;4992;51.628;6.664;2023-11-21T00:38:34;20.27;;;14.10;;
9906;SDS011;4992;51.628;6.664;2023-11-21T00:41:01;21.87;;;14.40;;
9906;SDS011;4992;51.628;6.664;2023-11-21T00:43:27;23.93;;;14.43;;
9906;SDS011;4992;51.628;6.664;2023-11-21T00:45:53;18.53;;;14.30;;
9906;SDS011;4992;51.628;6.664;2023-11-21T00:48:19;26.23;;;14.00;;
9906;SDS011;4992;51.628;6.664;2023-11-21T00:50:44;24.97;;;15.30;;
9906;SDS011;4992;51.628;6.664;2023-11-21T00:53:10;20.40;;;14.10;;
9906;SDS011;4992;51.628;6.664;2023-11-21T00:55:36;20.90;;;15.47;;
9906;SDS011;4992;51.628;6.664;2023-11-21T00:58:02;25.63;;;15.50;;
9906;SDS011;4992;51.628;6.664;2023-11-21T01:00:29;19.53;;;15.50;;
9906;SDS011;4992;51.628;6.664;2023-11-21T01:02:54;24.90;;;15.80;;
9906;SDS011;4992;51.628;6.664;2023-11-21T01:05:20;19.13;;;15.17;;
9906;SDS011;4992;51.628;6.664;2023-11-21T01:07:46;20.60;;;16.17;;
9906;SDS011;4992;51.628;6.664;2023-11-21T01:10:11;24.17;;;16.80;;
9906;SDS011;4992;51.628;6.664;2023-11-21T01:12:37;23.33;;;17.10;;
9906;SDS011;4992;51.628;6.664;2023-11-21T01:15:04;27.77;;;18.33;;
9906;SDS011;4992;51.628;6.664;2023-11-21T01:17:32;26.97;;;19.13;;
9906;SDS011;4992;51.628;6.664;2023-11-21T01:19:59;32.60;;;20.43;;
9906;SDS011;4992;51.628;6.664;2023-11-21T01:22:25;26.10;;;19.43;;
9906;SDS011;4992;51.628;6.664;2023-11-21T01:24:51;30.60;;;19.50;;
9906;SDS011;4992;51.628;6.664;2023-11-21T01:27:18;29.60;;;20.37;;
9906;SDS011;4992;51.628;6.664;2023-11-21T01:29:43;34.33;;;20.33;;
9906;SDS011;4992;51.628;6.664;2023-11-21T01:32:09;28.73;;;19.53;;
9906;SDS011;4992;51.628;6.664;2023-11-21T01:34:35;31.43;;;20.00;;
9906;SDS011;4992;51.628;6.664;2023-11-21T01:37:01;28.17;;;19.27;;
9906;SDS011;4992;51.628;6.664;2023-11-21T01:39:29;30.60;;;18.53;;
9906;SDS011;4992;51.628;6.664;2023-11-21T01:41:55;31.07;;;18.23;;
9906;SDS011;4992;51.628;6.664;2023-11-21T01:44:22;27.90;;;18.10;;
9906;SDS011;4992;51.628;6.664;2023-11-21T01:46:49;23.53;;;17.40;;
9906;SDS011;4992;51.628;6.664;2023-11-21T01:49:15;26.63;;;17.13;;
9906;SDS011;4992;51.628;6.664;2023-11-21T01:51:42;36.93;;;18.40;;
9906;SDS011;4992;51.628;6.664;2023-11-21T01:54:13;27.27;;;16.20;;
9906;SDS011;4992;51.628;6.664;2023-11-21T01:56:40;24.57;;;16.43;;
9906;SDS011;4992;51.628;6.664;2023-11-21T01:59:05;26.40;;;16.37;;
9906;SDS011;4992;51.628;6.664;2023-11-21T02:01:32;23.27;;;16.37;;
9906;SDS011;4992;51.628;6.664;2023-11-21T02:03:58;19.87;;;15.50;;
9906;SDS011;4992;51.628;6.664;2023-11-21T02:06:24;20.13;;;15.13;;
9906;SDS011;4992;51.628;6.664;2023-11-21T02:08:50;27.97;;;15.27;;
9906;SDS011;4992;51.628;6.664;2023-11-21T02:11:16;23.27;;;15.10;;
9906;SDS011;4992;51.628;6.664;2023-11-21T02:13:44;23.87;;;15.40;;
9906;SDS011;4992;51.628;6.664;2023-11-21T02:16:10;21.90;;;15.70;;
9906;SDS011;4992;51.628;6.664;2023-11-21T02:18:37;26.73;;;15.57;;
9906;SDS011;4992;51.628;6.664;2023-11-21T02:21:04;24.73;;;15.03;;
9906;SDS011;4992;51.628;6.664;2023-11-21T02:23:30;23.30;;;16.23;;
9906;SDS011;4992;51.628;6.664;2023-11-21T02:25:55;22.10;;;15.40;;
9906;SDS011;4992;51.628;6.664;2023-11-21T02:28:21;24.83;;;17.03;;
9906;SDS011;4992;51.628;6.664;2023-11-21T02:30:51;19.43;;;15.77;;
9906;SDS011;4992;51.628;6.664;2023-11-21T02:33:24;24.40;;;17.37;;
9906;SDS011;4992;51.628;6.664;2023-11-21T02:35:49;29.30;;;17.50;;
9906;SDS011;4992;51.628;6.664;2023-11-21T02:38:19;24.20;;;17.33;;
9906;SDS011;4992;51.628;6.664;2023-11-21T02:40:48;24.40;;;15.37;;
9906;SDS011;4992;51.628;6.664;2023-11-21T02:43:14;23.40;;;16.70;;
9906;SDS011;4992;51.628;6.664;2023-11-21T02:45:39;26.10;;;16.90;;
9906;SDS011;4992;51.628;6.664;2023-11-21T02:48:06;30.17;;;17.53;;
9906;SDS011;4992;51.628;6.664;2023-11-21T02:50:32;30.80;;;17.67;;
9906;SDS011;4992;51.628;6.664;2023-11-21T02:53:00;29.80;;;17.93;;
9906;SDS011;4992;51.628;6.664;2023-11-21T02:55:26;34.40;;;19.00;;
9906;SDS011;4992;51.628;6.664;2023-11-21T02:57:52;31.80;;;18.40;;
9906;SDS011;4992;51.628;6.664;2023-11-21T03:00:18;28.00;;;17.13;;
9906;SDS011;4992;51.628;6.664;2023-11-21T03:02:44;30.73;;;18.27;;
9906;SDS011;4992;51.628;6.664;2023-11-21T03:05:12;29.60;;;17.67;;
9906;SDS011;4992;51.628;6.664;2023-11-21T03:07:39;30.17;;;17.27;;
9906;SDS011;4992;51.628;6.664;2023-11-21T03:10:05;33.63;;;19.47;;
9906;SDS011;4992;51.628;6.664;2023-11-21T03:12:34;25.27;;;16.53;;
9906;SDS011;4992;51.628;6.664;2023-11-21T03:14:59;31.07;;;17.70;;
9906;SDS011;4992;51.628;6.664;2023-11-21T03:17:26;31.83;;;17.53;;
9906;SDS011;4992;51.628;6.664;2023-11-21T03:19:53;31.97;;;17.10;;
9906;SDS011;4992;51.628;6.664;2023-11-21T03:22:19;27.83;;;17.40;;
9906;SDS011;4992;51.628;6.664;2023-11-21T03:24:45;29.30;;;16.07;;
9906;SDS011;4992;51.628;6.664;2023-11-21T03:27:11;29.47;;;16.67;;
9906;SDS011;4992;51.628;6.664;2023-11-21T03:29:37;32.93;;;17.13;;
9906;SDS011;4992;51.628;6.664;2023-11-21T03:32:02;27.63;;;16.90;;
9906;SDS011;4992;51.628;6.664;2023-11-21T03:34:28;29.77;;;17.17;;
9906;SDS011;4992;51.628;6.664;2023-11-21T03:36:54;30.43;;;17.00;;
9906;SDS011;4992;51.628;6.664;2023-11-21T03:39:20;28.83;;;18.60;;
9906;SDS011;4992;51.628;6.664;2023-11-21T03:41:46;31.63;;;18.63;;
9906;SDS011;4992;51.628;6.664;2023-11-21T03:44:12;41.90;;;22.07;;
9906;SDS011;4992;51.628;6.664;2023-11-21T03:46:38;40.33;;;20.30;;
9906;SDS011;4992;51.628;6.664;2023-11-21T03:49:04;38.57;;;21.70;;
9906;SDS011;4992;51.628;6.664;2023-11-21T03:51:29;44.93;;;24.27;;
9906;SDS011;4992;51.628;6.664;2023-11-21T03:53:55;42.30;;;22.60;;
9906;SDS011;4992;51.628;6.664;2023-11-21T03:56:20;41.90;;;22.10;;
9906;SDS011;4992;51.628;6.664;2023-11-21T03:58:49;42.57;;;21.13;;
9906;SDS011;4992;51.628;6.664;2023-11-21T04:01:21;38.70;;;21.13;;
9906;SDS011;4992;51.628;6.664;2023-11-21T04:03:48;39.13;;;22.10;;
9906;SDS011;4992;51.628;6.664;2023-11-21T04:06:14;41.73;;;23.13;;
9906;SDS011;4992;51.628;6.664;2023-11-21T04:08:39;33.97;;;20.30;;
9906;SDS011;4992;51.628;6.664;2023-11-21T04:11:05;35.43;;;20.97;;
9906;SDS011;4992;51.628;6.664;2023-11-21T04:13:30;35.37;;;19.23;;
9906;SDS011;4992;51.628;6.664;2023-11-21T04:15:56;37.67;;;20.13;;
9906;SDS011;4992;51.628;6.664;2023-11-21T04:18:21;37.37;;;20.10;;
9906;SDS011;4992;51.628;6.664;2023-11-21T04:20:48;31.30;;;19.43;;
9906;SDS011;4992;51.628;6.664;2023-11-21T04:23:14;28.73;;;19.33;;
9906;SDS011;4992;51.628;6.664;2023-11-21T04:25:40;29.77;;;17.83;;
9906;SDS011;4992;51.628;6.664;2023-11-21T04:28:05;32.20;;;17.87;;
9906;SDS011;4992;51.628;6.664;2023-11-21T04:30:31;26.00;;;18.23;;
9906;SDS011;4992;51.628;6.664;2023-11-21T04:32:57;27.73;;;17.43;;
9906;SDS011;4992;51.628;6.664;2023-11-21T04:35:23;31.63;;;18.13;;
9906;SDS011;4992;51.628;6.664;2023-11-21T04:37:49;30.83;;;18.63;;
9906;SDS011;4992;51.628;6.664;2023-11-21T04:40:16;36.30;;;20.83;;
9906;SDS011;4992;51.628;6.664;2023-11-21T04:42:41;37.53;;;19.83;;
9906;SDS011;4992;51.628;6.664;2023-11-21T04:45:07;45.20;;;23.67;;
9906;SDS011;4992;51.628;6.664;2023-11-21T04:47:34;43.30;;;24.27;;
9906;SDS011;4992;51.628;6.664;2023-11-21T04:50:00;49.27;;;26.03;;
9906;SDS011;4992;51.628;6.664;2023-11-21T04:52:27;64.87;;;30.10;;
9906;SDS011;4992;51.628;6.664;2023-11-21T04:54:53;59.27;;;27.30;;
9906;SDS011;4992;51.628;6.664;2023-11-21T04:57:19;61.13;;;28.87;;
9906;SDS011;4992;51.628;6.664;2023-11-21T04:59:45;73.87;;;33.17;;
9906;SDS011;4992;51.628;6.664;2023-11-21T05:02:11;76.83;;;34.00;;
9906;SDS011;4992;51.628;6.664;2023-11-21T05:04:37;100.83;;;35.40;;
9906;SDS011;4992;51.628;6.664;2023-11-21T05:07:03;78.17;;;35.10;;
9906;SDS011;4992;51.628;6.664;2023-11-21T05:09:28;80.37;;;35.53;;
9906;SDS011;4992;51.628;6.664;2023-11-21T05:11:57;106.77;;;36.37;;
9906;SDS011;4992;51.628;6.664;2023-11-21T05:14:22;136.70;;;37.17;;
9906;SDS011;4992;51.628;6.664;2023-11-21T05:16:48;119.07;;;37.97;;
9906;SDS011;4992;51.628;6.664;2023-11-21T05:19:16;178.90;;;37.37;;
9906;SDS011;4992;51.628;6.664;2023-11-21T05:21:42;193.63;;;39.43;;
9906;SDS011;4992;51.628;6.664;2023-11-21T05:24:07;258.13;;;40.30;;
9906;SDS011;4992;51.628;6.664;2023-11-21T05:26:34;229.57;;;38.63;;
9906;SDS011;4992;51.628;6.664;2023-11-21T05:28:59;187.53;;;39.33;;
9906;SDS011;4992;51.628;6.664;2023-11-21T05:31:25;342.67;;;43.40;;
9906;SDS011;4992;51.628;6.664;2023-11-21T05:33:51;250.93;;;41.00;;
9906;SDS011;4992;51.628;6.664;2023-11-21T05:36:18;155.50;;;38.97;;
9906;SDS011;4992;51.628;6.664;2023-11-21T05:38:43;133.33;;;38.03;;
9906;SDS011;4992;51.628;6.664;2023-11-21T05:41:09;157.33;;;38.57;;
9906;SDS011;4992;51.628;6.664;2023-11-21T05:43:38;169.17;;;37.47;;
9906;SDS011;4992;51.628;6.664;2023-11-21T05:46:04;127.60;;;37.30;;
9906;SDS011;4992;51.628;6.664;2023-11-21T05:48:30;189.33;;;39.93;;
9906;SDS011;4992;51.628;6.664;2023-11-21T05:50:56;126.67;;;37.20;;
9906;SDS011;4992;51.628;6.664;2023-11-21T05:53:22;165.63;;;39.17;;
9906;SDS011;4992;51.628;6.664;2023-11-21T05:55:47;172.07;;;40.10;;
9906;SDS011;4992;51.628;6.664;2023-11-21T05:58:13;177.17;;;38.93;;
9906;SDS011;4992;51.628;6.664;2023-11-21T06:00:38;156.03;;;39.10;;
9906;SDS011;4992;51.628;6.664;2023-11-21T06:03:04;174.47;;;37.97;;
9906;SDS011;4992;51.628;6.664;2023-11-21T06:05:31;148.00;;;37.30;;
9906;SDS011;4992;51.628;6.664;2023-11-21T06:07:58;159.13;;;36.57;;
9906;SDS011;4992;51.628;6.664;2023-11-21T06:10:24;97.07;;;35.40;;
9906;SDS011;4992;51.628;6.664;2023-11-21T06:12:50;87.47;;;34.70;;
9906;SDS011;4992;51.628;6.664;2023-11-21T06:15:16;151.57;;;36.90;;
9906;SDS011;4992;51.628;6.664;2023-11-21T06:17:45;102.93;;;35.73;;
9906;SDS011;4992;51.628;6.664;2023-11-21T06:20:14;160.10;;;37.30;;
9906;SDS011;4992;51.628;6.664;2023-11-21T06:22:44;145.93;;;37.60;;
9906;SDS011;4992;51.628;6.664;2023-11-21T06:25:11;127.73;;;36.13;;
9906;SDS011;4992;51.628;6.664;2023-11-21T06:27:39;111.93;;;34.80;;
9906;SDS011;4992;51.628;6.664;2023-11-21T06:30:07;112.53;;;32.57;;
9906;SDS011;4992;51.628;6.664;2023-11-21T06:32:35;127.13;;;35.73;;
9906;SDS011;4992;51.628;6.664;2023-11-21T06:35:01;113.57;;;34.73;;
9906;SDS011;4992;51.628;6.664;2023-11-21T06:37:29;90.00;;;33.70;;
9906;SDS011;4992;51.628;6.664;2023-11-21T06:39:55;98.80;;;34.13;;
9906;SDS011;4992;51.628;6.664;2023-11-21T06:42:22;95.33;;;33.53;;
9906;SDS011;4992;51.628;6.664;2023-11-21T06:44:49;85.83;;;33.30;;
9906;SDS011;4992;51.628;6.664;2023-11-21T06:47:16;100.63;;;33.23;;
9906;SDS011;4992;51.628;6.664;2023-11-21T06:49:43;87.93;;;33.93;;
9906;SDS011;4992;51.628;6.664;2023-11-21T06:52:08;95.53;;;35.83;;
9906;SDS011;4992;51.628;6.664;2023-11-21T06:54:34;110.20;;;35.50;;
9906;SDS011;4992;51.628;6.664;2023-11-21T06:57:01;94.07;;;33.67;;
9906;SDS011;4992;51.628;6.664;2023-11-21T06:59:30;111.50;;;37.37;;
9906;SDS011;4992;51.628;6.664;2023-11-21T07:01:56;119.87;;;36.77;;
9906;SDS011;4992;51.628;6.664;2023-11-21T07:04:22;147.73;;;36.87;;
9906;SDS011;4992;51.628;6.664;2023-11-21T07:06:47;130.90;;;36.90;;
9906;SDS011;4992;51.628;6.664;2023-11-21T07:09:13;135.33;;;36.50;;
9906;SDS011;4992;51.628;6.664;2023-11-21T07:11:38;107.30;;;37.43;;
9906;SDS011;4992;51.628;6.664;2023-11-21T07:14:04;113.20;;;35.27;;
9906;SDS011;4992;51.628;6.664;2023-11-21T07:16:37;124.47;;;36.77;;
9906;SDS011;4992;51.628;6.664;2023-11-21T07:19:06;163.37;;;37.73;;
9906;SDS011;4992;51.628;6.664;2023-11-21T07:21:32;126.47;;;36.53;;
9906;SDS011;4992;51.628;6.664;2023-11-21T07:23:58;94.60;;;34.13;;
9906;SDS011;4992;51.628;6.664;2023-11-21T07:26:28;94.70;;;33.60;;
9906;SDS011;4992;51.628;6.664;2023-11-21T07:28:54;84.33;;;33.43;;
9906;SDS011;4992;51.628;6.664;2023-11-21T07:31:20;101.20;;;33.87;;
9906;SDS011;4992;51.628;6.664;2023-11-21T07:33:46;98.23;;;34.63;;
9906;SDS011;4992;51.628;6.664;2023-11-21T07:36:15;141.47;;;34.47;;
9906;SDS011;4992;51.628;6.664;2023-11-21T07:38:43;93.27;;;32.33;;
9906;SDS011;4992;51.628;6.664;2023-11-21T07:41:10;94.73;;;33.27;;
9906;SDS011;4992;51.628;6.664;2023-11-21T07:43:36;120.07;;;33.07;;
9906;SDS011;4992;51.628;6.664;2023-11-21T07:46:02;147.50;;;32.90;;
9906;SDS011;4992;51.628;6.664;2023-11-21T07:48:31;86.93;;;32.67;;
9906;SDS011;4992;51.628;6.664;2023-11-21T07:50:57;100.23;;;32.00;;
9906;SDS011;4992;51.628;6.664;2023-11-21T07:53:24;105.40;;;34.57;;
9906;SDS011;4992;51.628;6.664;2023-11-21T07:55:50;80.87;;;33.53;;
9906;SDS011;4992;51.628;6.664;2023-11-21T07:58:17;95.87;;;34.83;;
9906;SDS011;4992;51.628;6.664;2023-11-21T08:00:43;93.20;;;32.43;;
9906;SDS011;4992;51.628;6.664;2023-11-21T08:03:08;89.00;;;35.00;;
9906;SDS011;4992;51.628;6.664;2023-11-21T08:05:34;81.20;;;33.77;;
9906;SDS011;4992;51.628;6.664;2023-11-21T08:07:59;95.47;;;33.93;;
9906;SDS011;4992;51.628;6.664;2023-11-21T08:10:25;85.53;;;35.60;;
9906;SDS011;4992;51.628;6.664;2023-11-21T08:12:51;97.03;;;36.00;;
9906;SDS011;4992;51.628;6.664;2023-11-21T08:15:17;92.43;;;36.60;;
9906;SDS011;4992;51.628;6.664;2023-11-21T08:17:43;90.93;;;34.80;;
9906;SDS011;4992;51.628;6.664;2023-11-21T08:20:08;90.50;;;35.67;;
9906;SDS011;4992;51.628;6.664;2023-11-21T08:22:35;91.43;;;34.23;;
9906;SDS011;4992;51.628;6.664;2023-11-21T08:25:01;80.80;;;32.63;;
9906;SDS011;4992;51.628;6.664;2023-11-21T08:27:29;93.40;;;35.00;;
9906;SDS011;4992;51.628;6.664;2023-11-21T08:29:55;96.13;;;35.07;;
9906;SDS011;4992;51.628;6.664;2023-11-21T08:32:22;85.67;;;34.13;;
9906;SDS011;4992;51.628;6.664;2023-11-21T08:34:47;82.93;;;33.33;;
9906;SDS011;4992;51.628;6.664;2023-11-21T08:37:16;83.63;;;33.57;;
9906;SDS011;4992;51.628;6.664;2023-11-21T08:39:42;80.87;;;33.10;;
9906;SDS011;4992;51.628;6.664;2023-11-21T08:42:09;83.18;;;33.47;;
9906;SDS011;4992;51.628;6.664;2023-11-21T08:44:34;80.73;;;32.77;;
9906;SDS011;4992;51.628;6.664;2023-11-21T08:47:00;67.43;;;29.83;;
9906;SDS011;4992;51.628;6.664;2023-11-21T08:49:25;71.60;;;32.07;;
9906;SDS011;4992;51.628;6.664;2023-11-21T08:51:52;69.28;;;32.00;;
9906;SDS011;4992;51.628;6.664;2023-11-21T08:54:20;62.93;;;30.63;;
9906;SDS011;4992;51.628;6.664;2023-11-21T08:56:46;63.33;;;31.10;;
9906;SDS011;4992;51.628;6.664;2023-11-21T08:59:11;63.47;;;30.50;;
9906;SDS011;4992;51.628;6.664;2023-11-21T09:01:39;58.37;;;28.23;;
9906;SDS011;4992;51.628;6.664;2023-11-21T09:04:05;64.43;;;35.20;;
9906;SDS011;4992;51.628;6.664;2023-11-21T09:06:30;53.83;;;28.45;;
9906;SDS011;4992;51.628;6.664;2023-11-21T09:08:56;49.03;;;26.10;;
9906;SDS011;4992;51.628;6.664;2023-11-21T09:11:21;44.72;;;24.77;;
9906;SDS011;4992;51.628;6.664;2023-11-21T09:13:48;49.25;;;27.25;;
9906;SDS011;4992;51.628;6.664;2023-11-21T09:16:14;49.35;;;26.80;;
9906;SDS011;4992;51.628;6.664;2023-11-21T09:18:41;50.13;;;26.55;;
9906;SDS011;4992;51.628;6.664;2023-11-21T09:21:06;46.72;;;26.30;;
9906;SDS011;4992;51.628;6.664;2023-11-21T09:23:32;47.75;;;27.13;;
9906;SDS011;4992;51.628;6.664;2023-11-21T09:25:57;45.50;;;27.08;;
9906;SDS011;4992;51.628;6.664;2023-11-21T09:28:24;42.72;;;26.48;;
9906;SDS011;4992;51.628;6.664;2023-11-21T09:30:52;42.08;;;25.92;;
9906;SDS011;4992;51.628;6.664;2023-11-21T09:33:18;47.83;;;27.73;;
9906;SDS011;4992;51.628;6.664;2023-11-21T09:35:43;42.13;;;25.30;;
9906;SDS011;4992;51.628;6.664;2023-11-21T09:38:09;45.97;;;27.15;;
9906;SDS011;4992;51.628;6.664;2023-11-21T09:40:36;45.22;;;26.35;;
9906;SDS011;4992;51.628;6.664;2023-11-21T09:43:06;39.95;;;25.58;;
9906;SDS011;4992;51.628;6.664;2023-11-21T09:45:39;38.72;;;24.90;;
9906;SDS011;4992;51.628;6.664;2023-11-21T09:48:05;39.78;;;24.33;;
9906;SDS011;4992;51.628;6.664;2023-11-21T09:50:32;42.20;;;25.15;;
9906;SDS011;4992;51.628;6.664;2023-11-21T09:53:09;40.40;;;25.67;;
9906;SDS011;4992;51.628;6.664;2023-11-21T09:55:46;41.83;;;26.10;;
9906;SDS011;4992;51.628;6.664;2023-11-21T09:58:13;39.47;;;24.58;;
9906;SDS011;4992;51.628;6.664;2023-11-21T10:00:40;47.33;;;25.08;;
9906;SDS011;4992;51.628;6.664;2023-11-21T10:03:07;43.15;;;24.58;;
9906;SDS011;4992;51.628;6.664;2023-11-21T10:05:33;40.20;;;25.73;;
9906;SDS011;4992;51.628;6.664;2023-11-21T10:07:59;34.50;;;22.63;;
9906;SDS011;4992;51.628;6.664;2023-11-21T10:10:26;31.05;;;22.45;;
9906;SDS011;4992;51.628;6.664;2023-11-21T10:12:57;37.95;;;23.10;;
9906;SDS011;4992;51.628;6.664;2023-11-21T10:15:31;35.75;;;21.80;;
9906;SDS011;4992;51.628;6.664;2023-11-21T10:18:04;36.17;;;21.65;;
9906;SDS011;4992;51.628;6.664;2023-11-21T10:20:32;36.28;;;22.27;;
9906;SDS011;4992;51.628;6.664;2023-11-21T10:23:02;34.38;;;22.08;;
9906;SDS011;4992;51.628;6.664;2023-11-21T10:25:29;40.47;;;22.52;;
9906;SDS011;4992;51.628;6.664;2023-11-21T10:27:59;35.80;;;21.48;;
9906;SDS011;4992;51.628;6.664;2023-11-21T10:30:36;35.28;;;22.38;;
9906;SDS011;4992;51.628;6.664;2023-11-21T10:33:03;36.70;;;22.35;;
9906;SDS011;4992;51.628;6.664;2023-11-21T10:35:39;34.72;;;21.02;;
9906;SDS011;4992;51.628;6.664;2023-11-21T10:38:12;33.45;;;22.00;;
9906;SDS011;4992;51.628;6.664;2023-11-21T10:40:39;35.28;;;22.55;;
9906;SDS011;4992;51.628;6.664;2023-11-21T10:43:10;34.78;;;22.98;;
9906;SDS011;4992;51.628;6.664;2023-11-21T10:45:40;39.33;;;22.77;;
9906;SDS011;4992;51.628;6.664;2023-11-21T10:48:07;33.15;;;22.83;;
9906;SDS011;4992;51.628;6.664;2023-11-21T10:50:37;33.83;;;22.65;;
9906;SDS011;4992;51.628;6.664;2023-11-21T10:53:03;38.03;;;23.42;;
9906;SDS011;4992;51.628;6.664;2023-11-21T10:55:29;32.88;;;22.15;;
9906;SDS011;4992;51.628;6.664;2023-11-21T10:57:58;34.53;;;22.63;;
9906;SDS011;4992;51.628;6.664;2023-11-21T11:00:25;38.95;;;22.83;;
9906;SDS011;4992;51.628;6.664;2023-11-21T11:02:53;36.88;;;21.83;;
9906;SDS011;4992;51.628;6.664;2023-11-21T11:05:20;32.78;;;20.88;;
9906;SDS011;4992;51.628;6.664;2023-11-21T11:07:49;39.55;;;23.48;;
9906;SDS011;4992;51.628;6.664;2023-11-21T11:10:20;33.45;;;22.58;;
9906;SDS011;4992;51.628;6.664;2023-11-21T11:12:47;37.47;;;22.27;;
9906;SDS011;4992;51.628;6.664;2023-11-21T11:15:14;25.30;;;16.95;;
9906;SDS011;4992;51.628;6.664;2023-11-21T11:17:44;27.63;;;17.05;;
9906;SDS011;4992;51.628;6.664;2023-11-21T11:20:12;27.67;;;17.10;;
9906;SDS011;4992;51.628;6.664;2023-11-21T11:28:10;26.27;;;18.17;;
9906;SDS011;4992;51.628;6.664;2023-11-21T11:33:59;25.92;;;18.38;;
9906;SDS011;4992;51.628;6.664;2023-11-21T11:36:47;25.23;;;18.02;;
9906;SDS011;4992;51.628;6.664;2023-11-21T11:39:28;26.27;;;17.63;;
9906;SDS011;4992;51.628;6.664;2023-11-21T11:41:55;22.67;;;17.27;;
9906;SDS011;4992;51.628;6.664;2023-11-21T11:47:29;24.35;;;17.85;;
9906;SDS011;4992;51.628;6.664;2023-11-21T11:50:06;21.95;;;15.13;;
9906;SDS011;4992;51.628;6.664;2023-11-21T11:55:15;21.05;;;14.10;;
9906;SDS011;4992;51.628;6.664;2023-11-21T11:57:44;19.45;;;14.30;;
9906;SDS011;4992;51.628;6.664;2023-11-21T12:00:16;19.08;;;14.50;;
9906;SDS011;4992;51.628;6.664;2023-11-21T12:02:47;20.15;;;14.63;;
9906;SDS011;4992;51.628;6.664;2023-11-21T12:05:14;23.20;;;16.40;;
9906;SDS011;4992;51.628;6.664;2023-11-21T12:10:12;23.38;;;17.15;;
9906;SDS011;4992;51.628;6.664;2023-11-21T12:12:46;23.02;;;17.63;;
9906;SDS011;4992;51.628;6.664;2023-11-21T12:15:17;24.85;;;17.48;;
9906;SDS011;4992;51.628;6.664;2023-11-21T12:17:44;23.42;;;17.20;;
9906;SDS011;4992;51.628;6.664;2023-11-21T12:20:11;24.30;;;17.60;;
9906;SDS011;4992;51.628;6.664;2023-11-21T12:22:49;24.33;;;16.63;;
9906;SDS011;4992;51.628;6.664;2023-11-21T12:25:16;27.35;;;18.00;;
9906;SDS011;4992;51.628;6.664;2023-11-21T12:27:50;25.50;;;16.85;;
9906;SDS011;4992;51.628;6.664;2023-11-21T12:30:17;22.48;;;16.85;;
9906;SDS011;4992;51.628;6.664;2023-11-21T12:32:53;22.85;;;17.13;;
9906;SDS011;4992;51.628;6.664;2023-11-21T12:35:21;22.70;;;15.68;;
9906;SDS011;4992;51.628;6.664;2023-11-21T12:37:48;25.45;;;17.17;;
9906;SDS011;4992;51.628;6.664;2023-11-21T12:40:15;25.52;;;17.17;;
9906;SDS011;4992;51.628;6.664;2023-11-21T12:42:42;23.50;;;17.23;;
9906;SDS011;4992;51.628;6.664;2023-11-21T12:45:30;23.35;;;16.98;;
9906;SDS011;4992;51.628;6.664;2023-11-21T12:47:56;23.77;;;17.92;;
9906;SDS011;4992;51.628;6.664;2023-11-21T12:50:25;22.33;;;16.48;;
9906;SDS011;4992;51.628;6.664;2023-11-21T12:53:00;26.23;;;17.38;;
9906;SDS011;4992;51.628;6.664;2023-11-21T12:55:29;24.27;;;16.80;;
9906;SDS011;4992;51.628;6.664;2023-11-21T12:57:56;26.13;;;17.83;;
9906;SDS011;4992;51.628;6.664;2023-11-21T13:00:30;24.55;;;17.45;;
9906;SDS011;4992;51.628;6.664;2023-11-21T13:02:58;27.85;;;18.48;;
9906;SDS011;4992;51.628;6.664;2023-11-21T13:05:25;27.35;;;18.35;;
9906;SDS011;4992;51.628;6.664;2023-11-21T13:07:53;27.98;;;18.10;;
9906;SDS011;4992;51.628;6.664;2023-11-21T13:10:21;27.38;;;17.30;;
9906;SDS011;4992;51.628;6.664;2023-11-21T13:12:52;30.60;;;19.08;;
9906;SDS011;4992;51.628;6.664;2023-11-21T13:15:18;30.80;;;18.30;;
9906;SDS011;4992;51.628;6.664;2023-11-21T13:17:44;30.02;;;18.85;;
9906;SDS011;4992;51.628;6.664;2023-11-21T13:20:10;32.88;;;19.30;;
9906;SDS011;4992;51.628;6.664;2023-11-21T13:22:44;33.40;;;19.13;;
9906;SDS011;4992;51.628;6.664;2023-11-21T13:25:11;27.85;;;18.45;;
9906;SDS011;4992;51.628;6.664;2023-11-21T13:27:36;30.88;;;19.10;;
9906;SDS011;4992;51.628;6.664;2023-11-21T13:30:03;27.27;;;17.17;;
9906;SDS011;4992;51.628;6.664;2023-11-21T13:32:29;28.38;;;18.05;;
9906;SDS011;4992;51.628;6.664;2023-11-21T13:34:57;32.95;;;18.67;;
9906;SDS011;4992;51.628;6.664;2023-11-21T13:37:24;30.35;;;17.88;;
9906;SDS011;4992;51.628;6.664;2023-11-21T13:39:53;28.15;;;17.55;;
9906;SDS011;4992;51.628;6.664;2023-11-21T13:42:19;31.55;;;17.90;;
9906;SDS011;4992;51.628;6.664;2023-11-21T13:44:48;24.73;;;16.90;;
9906;SDS011;4992;51.628;6.664;2023-11-21T13:47:15;26.58;;;16.95;;
9906;SDS011;4992;51.628;6.664;2023-11-21T13:49:41;22.95;;;16.83;;
9906;SDS011;4992;51.628;6.664;2023-11-21T13:52:07;26.48;;;17.02;;
9906;SDS011;4992;51.628;6.664;2023-11-21T13:54:32;24.92;;;17.25;;
9906;SDS011;4992;51.628;6.664;2023-11-21T13:56:58;23.25;;;16.25;;
9906;SDS011;4992;51.628;6.664;2023-11-21T13:59:25;24.80;;;16.13;;
9906;SDS011;4992;51.628;6.664;2023-11-21T14:01:53;23.27;;;16.15;;
9906;SDS011;4992;51.628;6.664;2023-11-21T14:04:24;22.20;;;16.17;;
9906;SDS011;4992;51.628;6.664;2023-11-21T14:06:51;20.90;;;15.30;;
9906;SDS011;4992;51.628;6.664;2023-11-21T14:09:20;22.45;;;16.02;;
9906;SDS011;4992;51.628;6.664;2023-11-21T14:11:48;21.13;;;15.50;;
9906;SDS011;4992;51.628;6.664;2023-11-21T14:14:19;23.10;;;15.93;;
9906;SDS011;4992;51.628;6.664;2023-11-21T14:16:45;24.05;;;15.68;;
9906;SDS011;4992;51.628;6.664;2023-11-21T14:19:10;21.40;;;15.02;;
9906;SDS011;4992;51.628;6.664;2023-11-21T14:21:45;22.90;;;15.52;;
9906;SDS011;4992;51.628;6.664;2023-11-21T14:24:11;22.45;;;13.88;;
9906;SDS011;4992;51.628;6.664;2023-11-21T14:26:38;18.20;;;13.65;;
9906;SDS011;4992;51.628;6.664;2023-11-21T14:29:08;18.83;;;13.55;;
9906;SDS011;4992;51.628;6.664;2023-11-21T14:31:34;18.95;;;12.60;;
9906;SDS011;4992;51.628;6.664;2023-11-21T14:34:00;18.20;;;12.40;;
9906;SDS011;4992;51.628;6.664;2023-11-21T14:36:29;17.83;;;12.50;;
9906;SDS011;4992;51.628;6.664;2023-11-21T14:38:54;18.75;;;12.13;;
9906;SDS011;4992;51.628;6.664;2023-11-21T14:41:20;20.38;;;12.75;;
9906;SDS011;4992;51.628;6.664;2023-11-21T14:43:46;17.52;;;11.70;;
9906;SDS011;4992;51.628;6.664;2023-11-21T14:46:14;17.80;;;12.00;;
9906;SDS011;4992;51.628;6.664;2023-11-21T14:48:42;20.25;;;11.52;;
9906;SDS011;4992;51.628;6.664;2023-11-21T14:51:11;19.08;;;11.65;;
9906;SDS011;4992;51.628;6.664;2023-11-21T14:53:54;14.85;;;11.30;;
9906;SDS011;4992;51.628;6.664;2023-11-21T14:56:24;17.50;;;11.35;;
9906;SDS011;4992;51.628;6.664;2023-11-21T14:58:58;14.93;;;11.02;;
9906;SDS011;4992;51.628;6.664;2023-11-21T15:01:41;13.88;;;10.23;;
9906;SDS011;4992;51.628;6.664;2023-11-21T15:04:22;14.57;;;9.75;;